Time;durP1;ratioP1;P1;durP2;ratioP2;P2;SDS_P1;SDS_P2;PMS_P1;PMS_P2;Temp;Humidity;BMP_temperature;BMP_pressure;BME280_temperature;BME280_humidity;BME280_pressure;Samples;Min_cycle;Max_cycle;Signal;HPM_P1;HPM_P2
2022/10/25 00:01:34;;;;;;;22.90;5.25;;;;;;;17.69;70.15;100336.78;4927297;28;119508;-75
2022/10/25 00:03:59;;;;;;;23.58;5.68;;;;;;;17.70;70.14;100327.94;4930499;28;119391;-76
2022/10/25 00:06:26;;;;;;;19.60;5.15;;;;;;;17.71;70.06;100328.72;4932248;28;119605;-76
2022/10/25 00:08:52;;;;;;;24.90;5.60;;;;;;;17.71;69.99;100329.47;4931205;28;120117;-76
2022/10/25 00:11:27;;;;;;;27.33;6.68;;;;;;;17.71;69.91;100326.69;4931600;28;119807;-76
2022/10/25 00:13:56;;;;;;;22.73;6.07;;;;;;;17.70;69.97;100330.72;4933299;28;120026;-76
2022/10/25 00:16:25;;;;;;;23.20;5.50;;;;;;;17.70;69.55;100316.84;4930586;28;120043;-76
2022/10/25 00:18:52;;;;;;;23.40;6.93;;;;;;;17.69;70.06;100322.91;4931388;28;119586;-75
2022/10/25 00:21:18;;;;;;;21.48;6.25;;;;;;;17.69;69.96;100326.44;4925926;28;120072;-76
2022/10/25 00:23:44;;;;;;;26.02;6.82;;;;;;;17.71;70.03;100335.00;4934878;28;119825;-76
2022/10/25 00:26:10;;;;;;;25.95;7.45;;;;;;;17.71;70.04;100323.16;4926274;28;119893;-75
2022/10/25 00:28:36;;;;;;;27.42;7.25;;;;;;;17.71;69.86;100329.47;4913653;28;121736;-76
2022/10/25 00:31:04;;;;;;;28.40;7.20;;;;;;;17.71;69.82;100329.47;4909813;28;119967;-76
2022/10/25 00:33:32;;;;;;;22.38;7.28;;;;;;;17.72;69.80;100330.22;4930778;28;119623;-76
2022/10/25 00:36:09;;;;;;;21.77;7.03;;;;;;;17.71;69.75;100323.91;4910148;28;122255;-76
2022/10/25 00:38:35;;;;;;;26.48;8.02;;;;;;;17.69;69.73;100331.25;4908606;28;119447;-76
2022/10/25 00:41:01;;;;;;;24.25;7.38;;;;;;;17.66;69.76;100335.75;4931338;28;120357;-76
2022/10/25 00:43:37;;;;;;;23.85;6.90;;;;;;;17.66;70.04;100338.53;4917639;28;120150;-76
2022/10/25 00:46:22;;;;;;;24.48;7.30;;;;;;;17.67;69.92;100334.53;4921643;28;120289;-76
2022/10/25 00:49:07;;;;;;;26.60;7.05;;;;;;;17.67;70.07;100342.84;4912205;28;119682;-76
2022/10/25 00:51:47;;;;;;;21.00;7.63;;;;;;;17.67;69.79;100334.53;4931826;28;119601;-76
2022/10/25 00:54:19;;;;;;;31.40;8.15;;;;;;;17.66;70.06;100335.75;4924413;28;120450;-76
2022/10/25 00:56:48;;;;;;;;;;;;;;;17.65;70.02;100330.72;4925125;28;120252;-76
2022/10/25 00:59:17;;;;;;;24.27;6.82;;;;;;;17.67;70.17;100334.53;4929425;28;120847;-75
2022/10/25 01:01:43;;;;;;;29.92;7.30;;;;;;;17.68;70.27;100336.03;4930919;28;119971;-76
2022/10/25 01:04:12;;;;;;;24.50;7.55;;;;;;;17.64;70.12;100327.19;4930213;28;120017;-76
2022/10/25 01:06:44;;;;;;;27.65;7.55;;;;;;;17.71;69.74;100329.47;4934797;28;119550;-76
2022/10/25 01:09:14;;;;;;;27.00;7.63;;;;;;;17.71;70.06;100337.78;4930156;28;120008;-75
2022/10/25 01:11:39;;;;;;;25.95;7.55;;;;;;;17.67;69.85;100328.97;4916943;28;120225;-75
2022/10/25 01:14:07;;;;;;;23.52;7.47;;;;;;;17.72;69.96;100342.06;4919873;28;119880;-76
2022/10/25 01:16:41;;;;;;;28.60;7.43;;;;;;;17.71;70.02;100332.25;4924704;28;120417;-76
2022/10/25 01:19:32;;;;;;;34.10;7.45;;;;;;;17.72;70.05;100338.53;4928631;28;119587;-76
2022/10/25 01:22:02;;;;;;;29.13;7.85;;;;;;;17.72;69.98;100339.28;4915056;28;120445;-76
2022/10/25 01:24:40;;;;;;;28.45;6.68;;;;;;;17.73;69.96;100331.72;4912622;28;119946;-76
2022/10/25 01:27:10;;;;;;;27.73;7.15;;;;;;;17.76;70.11;100333.50;4933755;28;119542;-75
2022/10/25 01:29:45;;;;;;;27.03;7.17;;;;;;;17.77;70.02;100338.53;4914838;28;120063;-75
2022/10/25 01:32:22;;;;;;;30.27;7.55;;;;;;;17.79;69.85;100332.50;4934133;28;119830;-75
2022/10/25 01:35:29;;;;;;;26.70;7.43;;;;;;;17.81;70.02;100331.97;4896678;28;120915;-75
2022/10/25 01:38:06;;;;;;;29.13;7.57;;;;;;;17.82;70.07;100334.25;4881244;28;121437;-76
2022/10/25 01:40:51;;;;;;;30.77;7.35;;;;;;;17.81;69.97;100318.84;4927552;28;119697;-75
2022/10/25 01:43:26;;;;;;;35.25;9.30;;;;;;;17.84;69.92;100325.41;4928279;28;119499;-74
2022/10/25 01:46:14;;;;;;;35.80;9.05;;;;;;;17.76;69.90;100323.16;4925385;28;120104;-75
2022/10/25 01:48:46;;;;;;;37.67;8.85;;;;;;;17.78;69.82;100328.97;4929603;28;120125;-75
2022/10/25 01:51:15;;;;;;;33.63;8.48;;;;;;;17.77;70.10;100324.69;4904745;28;121165;-75
2022/10/25 01:53:45;;;;;;;37.05;8.35;;;;;;;17.78;70.10;100340.06;4929723;28;119917;-74
2022/10/25 01:56:19;;;;;;;38.38;8.07;;;;;;;17.77;70.62;100341.31;4908653;28;120184;-75
2022/10/25 01:58:59;;;;;;;37.17;7.32;;;;;;;17.78;70.38;100340.06;4892573;28;120487;-75
2022/10/25 02:02:03;;;;;;;30.42;7.82;;;;;;;17.76;70.66;100336.28;4899448;28;119621;-75
2022/10/25 02:04:46;;;;;;;31.10;8.32;;;;;;;17.68;71.01;100322.16;4915500;28;120541;-75
2022/10/25 02:07:35;;;;;;;35.00;8.65;;;;;;;17.69;71.12;100334.75;4928504;28;120107;-75
2022/10/25 02:10:03;;;;;;;41.92;8.65;;;;;;;17.66;71.35;100330.22;4916380;28;120029;-75
2022/10/25 02:12:37;;;;;;;33.67;7.57;;;;;;;17.69;71.41;100343.09;4930497;28;119848;-74
2022/10/25 02:15:38;;;;;;;31.90;7.90;;;;;;;17.68;71.42;100341.56;4930488;28;119839;-75
2022/10/25 02:18:11;;;;;;;32.97;7.32;;;;;;;17.65;71.61;100344.59;4912406;28;119534;-75
2022/10/25 02:20:40;;;;;;;32.78;7.38;;;;;;;17.65;71.63;100339.78;4926993;28;120634;-75
2022/10/25 02:23:06;;;;;;;32.47;7.25;;;;;;;17.63;72.24;100345.09;4926357;28;120071;-75
2022/10/25 02:25:34;;;;;;;34.25;6.53;;;;;;;17.62;71.93;100334.50;4926031;28;119528;-74
2022/10/25 02:28:07;;;;;;;34.65;6.80;;;;;;;17.62;71.95;100340.06;4926916;28;120281;-75
2022/10/25 02:30:36;;;;;;;29.38;6.88;;;;;;;17.62;72.10;100340.81;4912498;28;120334;-75
2022/10/25 02:33:28;;;;;;;21.30;6.00;;;;;;;17.61;72.12;100336.53;4905193;28;119863;-75
2022/10/25 02:36:15;;;;;;;31.38;6.85;;;;;;;17.61;72.08;100333.00;4928275;28;120294;-74
2022/10/25 02:38:42;;;;;;;29.92;7.28;;;;;;;17.59;72.17;100332.75;4915886;28;119759;-75
2022/10/25 02:41:08;;;;;;;36.78;7.82;;;;;;;17.61;72.17;100333.00;4914597;28;120046;-74
2022/10/25 02:43:34;;;;;;;39.00;8.18;;;;;;;17.62;72.32;100331.75;4923153;28;119867;-75
2022/10/25 02:46:08;;;;;;;40.22;8.52;;;;;;;17.62;72.34;100340.81;4920992;28;119991;-75
2022/10/25 02:48:35;;;;;;;35.85;8.55;;;;;;;17.58;72.37;100336.78;4908915;28;120055;-75
2022/10/25 02:51:00;;;;;;;29.52;7.32;;;;;;;17.58;72.50;100334.03;4926198;28;119962;-74
2022/10/25 02:53:26;;;;;;;32.35;7.68;;;;;;;17.51;72.46;100332.53;4927059;28;119692;-75
2022/10/25 02:56:13;;;;;;;34.13;8.10;;;;;;;17.56;72.65;100339.31;4918320;28;119885;-74
2022/10/25 02:58:40;;;;;;;34.60;8.07;;;;;;;17.56;72.34;100339.31;4913836;28;120346;-75
2022/10/25 03:01:07;;;;;;;33.33;7.70;;;;;;;17.55;72.23;100340.59;4928151;28;119910;-74
2022/10/25 03:04:01;;;;;;;34.10;7.40;;;;;;;17.49;72.27;100335.03;4876836;28;119886;-75
2022/10/25 03:06:27;;;;;;;34.60;7.40;;;;;;;17.49;72.18;100344.09;4924499;28;119676;-75
2022/10/25 03:08:53;;;;;;;29.52;6.43;;;;;;;17.44;72.00;100344.88;4924935;28;120234;-75
2022/10/25 03:11:18;;;;;;;30.63;6.72;;;;;;;17.41;72.39;100343.09;4929350;28;119609;-75
2022/10/25 03:13:44;;;;;;;37.55;6.88;;;;;;;17.40;72.53;100349.16;4928477;28;119724;-75
2022/10/25 03:16:10;;;;;;;25.58;6.20;;;;;;;17.36;72.47;100345.88;4928082;28;120037;-75
2022/10/25 03:18:36;;;;;;;28.67;6.20;;;;;;;17.36;72.78;100348.66;4911879;28;119837;-74
2022/10/25 03:21:13;;;;;;;31.20;5.75;;;;;;;17.36;72.98;100359.75;4928004;28;120003;-75
2022/10/25 03:23:39;;;;;;;27.25;6.30;;;;;;;17.37;72.66;100356.47;4931622;28;120004;-75
2022/10/25 03:26:05;;;;;;;27.45;7.22;;;;;;;17.34;72.73;100356.72;4928843;28;119737;-75
2022/10/25 03:28:31;;;;;;;28.23;6.45;;;;;;;17.36;72.59;100365.28;4910963;28;121301;-75
2022/10/25 03:30:58;;;;;;;25.17;6.65;;;;;;;17.33;72.68;100358.00;4926489;28;120086;-75
2022/10/25 03:33:25;;;;;;;27.20;7.20;;;;;;;17.32;72.50;100367.56;4923560;28;120623;-75
2022/10/25 03:35:52;;;;;;;30.85;6.50;;;;;;;17.31;72.48;100382.69;4901890;28;120141;-75
2022/10/25 03:38:17;;;;;;;21.77;5.80;;;;;;;17.24;72.42;100369.31;4929139;28;120622;-75
2022/10/25 03:40:44;;;;;;;24.67;4.90;;;;;;;17.23;72.31;100381.66;4902739;28;119577;-75
2022/10/25 03:43:09;;;;;;;16.08;4.60;;;;;;;17.16;72.30;100374.63;4926491;28;119748;-75
2022/10/25 03:45:35;;;;;;;18.50;4.47;;;;;;;17.17;72.43;100387.97;4930382;28;119828;-75
2022/10/25 03:48:01;;;;;;;16.92;3.97;;;;;;;17.13;72.29;100381.91;4910575;28;120041;-77
2022/10/25 03:50:27;;;;;;;15.85;3.53;;;;;;;17.14;72.49;100385.44;4912958;28;120155;-75
2022/10/25 03:52:52;;;;;;;18.02;3.45;;;;;;;17.13;72.31;100393.00;4929275;28;120027;-75
2022/10/25 03:55:18;;;;;;;14.02;2.90;;;;;;;17.13;72.30;100393.00;4909853;28;120895;-74
2022/10/25 03:57:44;;;;;;;14.27;2.88;;;;;;;17.12;71.98;100397.03;4928352;28;119934;-75
2022/10/25 04:00:10;;;;;;;14.60;3.28;;;;;;;17.12;72.09;100396.28;4928291;28;119739;-75
2022/10/25 04:02:38;;;;;;;16.70;3.10;;;;;;;17.11;71.98;100403.84;4928342;28;120259;-75
2022/10/25 04:05:05;;;;;;;11.57;2.83;;;;;;;17.12;72.02;100401.81;4914631;28;119997;-75
2022/10/25 04:07:30;;;;;;;17.38;3.58;;;;;;;17.10;72.00;100410.63;4914591;28;119475;-74
2022/10/25 04:09:56;;;;;;;14.55;3.45;;;;;;;17.10;72.11;100405.09;4927266;28;120184;-75
2022/10/25 04:12:22;;;;;;;13.88;3.40;;;;;;;17.11;72.11;100409.38;4914529;28;119953;-75
2022/10/25 04:14:47;;;;;;;15.88;3.78;;;;;;;17.10;72.01;100405.09;4925095;28;120099;-75
2022/10/25 04:17:13;;;;;;;21.25;4.22;;;;;;;17.08;71.99;100398.56;4926578;28;120141;-75
2022/10/25 04:19:39;;;;;;;17.48;4.13;;;;;;;17.06;71.93;100398.28;4895373;28;121174;-75
2022/10/25 04:22:04;;;;;;;17.67;4.15;;;;;;;17.10;72.05;100409.88;4925135;28;119963;-74
2022/10/25 04:24:30;;;;;;;18.70;4.90;;;;;;;17.09;71.94;100406.34;4917160;28;120236;-75
2022/10/25 04:26:56;;;;;;;20.30;4.72;;;;;;;17.09;72.21;100406.34;4931274;28;119800;-75
2022/10/25 04:29:22;;;;;;;26.10;5.32;;;;;;;17.10;72.19;100416.19;4910606;28;120297;-75
2022/10/25 04:31:47;;;;;;;18.83;4.70;;;;;;;17.10;72.59;100418.19;4923583;28;119993;-75
2022/10/25 04:34:13;;;;;;;25.17;5.13;;;;;;;17.09;72.28;100414.66;4923741;28;119978;-75
2022/10/25 04:36:38;;;;;;;21.90;5.60;;;;;;;17.10;72.30;100409.88;4911844;28;120492;-75
2022/10/25 04:39:05;;;;;;;18.23;4.57;;;;;;;17.09;72.29;100413.91;4915352;28;119691;-75
2022/10/25 04:41:30;;;;;;;19.95;4.43;;;;;;;17.07;71.98;100419.97;4926211;28;119495;-75
2022/10/25 04:43:56;;;;;;;14.82;4.13;;;;;;;17.05;71.96;100413.41;4915834;28;119974;-74
2022/10/25 04:46:22;;;;;;;13.07;3.63;;;;;;;17.03;72.02;100422.19;4931235;28;119546;-75
2022/10/25 04:48:47;;;;;;;17.35;3.45;;;;;;;17.01;71.67;100413.63;4939382;28;120194;-75
2022/10/25 04:51:14;;;;;;;18.00;3.33;;;;;;;17.00;71.81;100417.66;4935731;28;119834;-75
2022/10/25 04:53:42;;;;;;;15.15;3.53;;;;;;;16.93;71.66;100411.88;4926484;28;120674;-75
2022/10/25 04:56:34;;;;;;;17.48;3.50;;;;;;;16.96;71.72;100424.72;4934349;28;119855;-75
2022/10/25 04:59:00;;;;;;;18.83;3.28;;;;;;;16.94;71.62;100419.66;4912069;28;119848;-75
2022/10/25 05:01:25;;;;;;;14.48;2.70;;;;;;;16.93;71.47;100434.03;4929101;28;120158;-75
2022/10/25 05:03:51;;;;;;;16.65;3.10;;;;;;;16.89;71.59;100425.97;4910414;28;119657;-75
2022/10/25 05:06:22;;;;;;;17.58;3.22;;;;;;;16.88;71.57;100430.75;4926342;28;119913;-75
2022/10/25 05:08:50;;;;;;;14.45;3.10;;;;;;;16.87;71.41;100431.25;4928478;28;120035;-74
2022/10/25 05:11:18;;;;;;;16.42;3.35;;;;;;;16.86;71.53;100441.56;4933516;28;119422;-74
2022/10/25 05:13:44;;;;;;;15.35;3.45;;;;;;;16.84;71.74;100432.25;4914476;28;121130;-75
2022/10/25 05:16:21;;;;;;;21.60;3.17;;;;;;;16.86;71.69;100436.03;4929945;28;119839;-76
2022/10/25 05:18:47;;;;;;;15.63;3.33;;;;;;;16.87;71.68;100434.03;4929207;28;120260;-75
2022/10/25 05:21:14;;;;;;;15.80;3.22;;;;;;;16.87;71.72;100443.09;4929331;28;119692;-75
2022/10/25 05:24:00;;;;;;;22.15;4.22;;;;;;;16.88;71.95;100443.84;4922052;28;119377;-75
2022/10/25 05:26:26;;;;;;;29.60;5.18;;;;;;;16.87;72.05;100453.41;4930429;28;119562;-75
2022/10/25 05:28:53;;;;;;;28.63;5.55;;;;;;;16.88;72.15;100446.63;4929066;28;119633;-75
2022/10/25 05:31:22;;;;;;;30.30;5.97;;;;;;;16.88;72.09;100450.13;4923446;28;119995;-74
2022/10/25 05:34:09;;;;;;;31.05;6.40;;;;;;;16.84;72.17;100446.09;4888777;28;120321;-75
2022/10/25 05:36:34;;;;;;;27.65;6.25;;;;;;;16.89;72.52;100459.22;4923003;28;119646;-75
2022/10/25 05:39:00;;;;;;;39.83;7.55;;;;;;;16.88;72.68;100461.22;4925496;28;119524;-74
2022/10/25 05:41:26;;;;;;;29.42;7.15;;;;;;;16.93;72.95;100465.25;4928650;28;121283;-75
2022/10/25 05:43:52;;;;;;;36.17;7.15;;;;;;;16.98;73.03;100461.75;4929599;28;120000;-75
2022/10/25 05:46:22;;;;;;;33.80;7.90;;;;;;;17.01;73.04;100462.75;4927946;28;119573;-75
2022/10/25 05:48:49;;;;;;;31.85;8.07;;;;;;;17.01;73.09;100459.97;4913136;28;120437;-76
2022/10/25 05:51:20;;;;;;;35.28;8.77;;;;;;;17.06;73.03;100467.56;4928062;28;119747;-75
2022/10/25 05:53:48;;;;;;;31.65;8.38;;;;;;;17.06;72.99;100464.81;4930620;28;119691;-75
2022/10/25 05:56:15;;;;;;;27.85;7.63;;;;;;;17.07;73.17;100460.78;4927729;28;119919;-75
2022/10/25 05:58:41;;;;;;;30.88;6.93;;;;;;;17.07;72.98;100477.41;4931647;28;119822;-75
2022/10/25 06:01:12;;;;;;;16.75;3.80;;;;;;;17.08;72.64;100474.13;4908074;28;120416;-76
2022/10/25 06:03:37;;;;;;;14.70;2.80;;;;;;;16.99;72.13;100466.03;4927837;28;120134;-75
2022/10/25 06:06:23;;;;;;;10.10;2.28;;;;;;;16.96;71.33;100477.34;4902334;28;120321;-76
2022/10/25 06:08:54;;;;;;;11.82;2.17;;;;;;;16.91;71.39;100472.56;4927308;28;119456;-75
2022/10/25 06:11:19;;;;;;;7.80;1.92;;;;;;;16.86;71.23;100468.50;4914414;28;119618;-75
2022/10/25 06:13:45;;;;;;;7.82;1.67;;;;;;;16.79;71.11;100471.75;4893513;28;119753;-75
2022/10/25 06:16:14;;;;;;;8.38;2.20;;;;;;;16.78;71.13;100475.78;4931315;28;120093;-75
2022/10/25 06:18:40;;;;;;;11.18;2.30;;;;;;;16.76;71.49;100478.28;4929069;28;120124;-75
2022/10/25 06:21:09;;;;;;;8.95;2.03;;;;;;;16.74;71.53;100495.41;4921121;28;120022;-75
2022/10/25 06:23:35;;;;;;;12.88;2.50;;;;;;;16.68;71.64;100483.56;4925276;28;120290;-75
2022/10/25 06:26:06;;;;;;;11.88;2.80;;;;;;;16.71;71.86;100501.94;4925889;28;119418;-75
2022/10/25 06:28:33;;;;;;;10.10;2.42;;;;;;;16.66;71.82;100501.88;4910785;28;120652;-76
2022/10/25 06:31:09;;;;;;;12.80;2.95;;;;;;;16.65;72.42;100503.16;4925843;28;119560;-75
2022/10/25 06:33:35;;;;;;;15.40;2.80;;;;;;;16.63;72.69;100500.88;4921210;28;119825;-75
2022/10/25 06:36:06;;;;;;;16.40;3.20;;;;;;;16.62;73.02;100509.69;4906389;28;120131;-75
2022/10/25 06:38:32;;;;;;;20.80;4.45;;;;;;;16.63;73.51;100508.44;4915131;28;119985;-75
2022/10/25 06:41:05;;;;;;;21.80;4.85;;;;;;;16.65;73.40;100509.44;4913763;28;120711;-75
2022/10/25 06:43:33;;;;;;;29.30;6.38;;;;;;;16.69;73.57;100517.53;4928102;28;119507;-75
2022/10/25 06:46:06;;;;;;;27.27;6.70;;;;;;;16.73;73.87;100520.81;4909543;28;120134;-75
2022/10/25 06:48:32;;;;;;;31.40;6.60;;;;;;;16.78;73.98;100522.84;4924987;28;119625;-75
2022/10/25 06:51:05;;;;;;;33.45;6.82;;;;;;;16.87;74.01;100530.97;4930522;28;120170;-75
2022/10/25 06:53:31;;;;;;;29.80;7.63;;;;;;;16.92;74.04;100537.78;4927293;28;120367;-75
2022/10/25 06:56:01;;;;;;;36.95;8.18;;;;;;;16.99;74.06;100537.31;4909004;28;120020;-75
2022/10/25 06:58:28;;;;;;;33.05;8.32;;;;;;;17.06;73.89;100536.84;4926689;28;119806;-75
2022/10/25 07:00:54;;;;;;;34.78;9.50;;;;;;;17.08;74.17;100535.09;4931115;28;119643;-75
2022/10/25 07:03:28;;;;;;;40.47;9.38;;;;;;;17.16;74.27;100547.19;4911512;28;119732;-75
2022/10/25 07:06:24;;;;;;;54.27;11.40;;;;;;;17.19;74.15;100535.09;4935464;28;120058;-75
2022/10/25 07:08:55;;;;;;;50.15;11.32;;;;;;;17.24;74.12;100547.47;4927163;28;121214;-74
2022/10/25 07:11:25;;;;;;;46.20;10.40;;;;;;;17.28;74.30;100556.31;4919892;28;120412;-75
2022/10/25 07:13:51;;;;;;;41.22;10.73;;;;;;;17.30;74.44;100555.81;4909127;28;122005;-75
2022/10/25 07:16:19;;;;;;;43.42;9.70;;;;;;;17.35;74.11;100564.16;4923487;28;120189;-75
2022/10/25 07:18:46;;;;;;;44.08;10.02;;;;;;;17.37;74.05;100561.63;4907664;28;120063;-75
2022/10/25 07:21:19;;;;;;;49.63;10.02;;;;;;;17.38;74.31;100562.38;4905546;28;119981;-75
2022/10/25 07:23:45;;;;;;;42.72;10.38;;;;;;;17.47;74.40;100573.22;4907274;28;119973;-75
2022/10/25 07:26:16;;;;;;;35.35;9.18;;;;;;;17.62;74.12;100576.56;4905869;28;120072;-75
2022/10/25 07:28:44;;;;;;;43.88;10.00;;;;;;;17.64;74.24;100567.72;4923663;28;121293;-74
2022/10/25 07:31:12;;;;;;;40.60;9.90;;;;;;;17.70;73.74;100579.59;4921577;28;119684;-75
2022/10/25 07:33:38;;;;;;;42.65;9.88;;;;;;;17.73;73.56;100582.13;4923984;28;119648;-75
2022/10/25 07:36:04;;;;;;;36.33;10.00;;;;;;;17.74;73.59;100572.56;4922190;28;120328;-75
2022/10/25 07:38:30;;;;;;;35.97;9.23;;;;;;;17.74;73.45;100580.91;4918594;28;120246;-74
2022/10/25 07:40:59;;;;;;;55.63;10.90;;;;;;;17.64;73.52;100560.16;4906123;28;120246;-75
2022/10/25 07:43:26;;;;;;;43.65;9.65;;;;;;;17.77;73.26;100574.34;4921983;28;119637;-74
2022/10/25 07:45:52;;;;;;;39.95;9.40;;;;;;;17.80;73.44;100578.13;4906937;28;120035;-74
2022/10/25 07:48:18;;;;;;;38.42;8.70;;;;;;;17.82;73.23;100577.63;4909931;28;120546;-77
2022/10/25 07:50:43;;;;;;;50.70;9.57;;;;;;;17.85;73.06;100574.59;4928787;28;120108;-77
2022/10/25 07:53:09;;;;;;;43.92;9.90;;;;;;;17.86;72.84;100578.88;4929118;28;120497;-78
2022/10/25 07:55:35;;;;;;;47.20;10.55;;;;;;;17.89;72.82;100591.75;4925512;28;119954;-77
2022/10/25 07:58:03;;;;;;;44.13;10.80;;;;;;;17.91;73.00;100594.03;4923718;28;120671;-76
2022/10/25 08:00:28;;;;;;;47.70;10.40;;;;;;;17.88;73.08;100590.22;4921882;28;120366;-75
2022/10/25 08:02:55;;;;;;;50.08;10.65;;;;;;;17.90;72.80;100598.06;4917915;28;120532;-75
2022/10/25 08:05:20;;;;;;;40.38;11.32;;;;;;;17.94;72.89;100596.53;4920754;28;119905;-74
2022/10/25 08:07:48;;;;;;;44.55;11.02;;;;;;;17.98;73.03;100601.84;4916017;28;120008;-76
2022/10/25 08:10:13;;;;;;;41.70;9.27;;;;;;;18.04;73.28;100605.38;4921999;28;120093;-75
2022/10/25 08:12:39;;;;;;;33.78;9.63;;;;;;;18.09;73.18;100601.84;4901114;28;119991;-78
2022/10/25 08:15:05;;;;;;;40.70;9.77;;;;;;;18.16;73.17;100608.91;4875531;28;120204;-76
2022/10/25 08:17:31;;;;;;;41.90;9.18;;;;;;;18.21;72.93;100602.59;4920239;28;119626;-74
2022/10/25 08:19:57;;;;;;;42.72;9.45;;;;;;;18.23;72.98;100600.84;4920193;28;119808;-75
2022/10/25 08:22:25;;;;;;;39.03;8.98;;;;;;;18.30;72.58;100610.69;4920797;28;119806;-74
2022/10/25 08:25:01;;;;;;;36.63;7.93;;;;;;;18.20;72.22;100610.16;4920933;28;120325;-74
2022/10/25 08:27:27;;;;;;;37.88;8.18;;;;;;;18.23;72.33;100616.75;4922598;28;120201;-74
2022/10/25 08:29:52;;;;;;;31.13;7.35;;;;;;;18.25;72.42;100620.53;4920315;28;120273;-75
2022/10/25 08:32:18;;;;;;;33.22;7.65;;;;;;;18.28;72.41;100619.53;4920584;28;119651;-74
2022/10/25 08:34:44;;;;;;;36.17;8.60;;;;;;;18.32;72.45;100625.59;4905467;28;120773;-74
2022/10/25 08:37:11;;;;;;;32.78;7.05;;;;;;;18.33;72.53;100612.44;4901167;28;120142;-76
2022/10/25 08:39:36;;;;;;;41.30;8.15;;;;;;;18.30;72.13;100614.22;4920654;28;120638;-77
2022/10/25 08:42:02;;;;;;;35.58;8.00;;;;;;;18.41;72.81;100628.09;4916454;28;120079;-75
2022/10/25 08:45:03;;;;;;;34.67;7.88;;;;;;;18.54;72.46;100632.38;4919313;28;119992;-74
2022/10/25 08:47:57;;;;;;;32.35;7.85;;;;;;;18.57;72.34;100636.91;4899484;28;120358;-76
2022/10/25 08:50:45;;;;;;;37.25;7.70;;;;;;;18.61;72.27;100629.84;4891968;28;120161;-76
2022/10/25 08:53:19;;;;;;;36.20;7.15;;;;;;;18.67;71.74;100629.84;4918242;28;121181;-76
2022/10/25 08:55:45;;;;;;;;;;;;;;;18.64;71.34;100639.97;4921106;28;120544;-74
2022/10/25 08:58:27;;;;;;;29.55;6.50;;;;;;;18.64;71.33;100653.84;4904068;28;120134;-76
2022/10/25 09:00:55;;;;;;;33.65;6.32;;;;;;;18.62;71.46;100642.50;4921127;28;119682;-76
2022/10/25 09:03:26;;;;;;;31.20;6.15;;;;;;;18.63;71.46;100649.56;4917355;28;119886;-76
2022/10/25 09:06:19;;;;;;;31.63;6.35;;;;;;;18.63;70.87;100643.25;4920034;28;119944;-76
2022/10/25 09:09:27;;;;;;;27.30;5.40;;;;;;;18.57;70.73;100656.38;4918933;28;120057;-75
2022/10/25 09:12:21;;;;;;;28.38;5.53;;;;;;;18.49;70.76;100658.16;4902046;28;122231;-77
2022/10/25 09:14:49;;;;;;;24.70;4.73;;;;;;;18.49;70.86;100663.72;4906367;28;120216;-75
2022/10/25 09:17:19;;;;;;;30.30;5.63;;;;;;;18.47;70.87;100664.22;4918548;28;119916;-76
2022/10/25 09:19:56;;;;;;;25.33;5.55;;;;;;;18.45;71.36;100665.94;4917402;28;119705;-76
2022/10/25 09:22:41;;;;;;;28.20;5.00;;;;;;;18.52;71.44;100673.81;4916255;28;119913;-76
2022/10/25 09:25:33;;;;;;;27.67;4.88;;;;;;;18.55;71.57;100678.34;4918079;28;120075;-75
2022/10/25 09:28:00;;;;;;;32.30;6.07;;;;;;;18.57;71.48;100673.78;4922325;28;120009;-75
2022/10/25 09:30:36;;;;;;;28.58;4.80;;;;;;;18.59;71.18;100678.84;4919725;28;120147;-76
2022/10/25 09:33:09;;;;;;;32.83;5.47;;;;;;;18.59;71.07;100682.38;4917353;28;121099;-76
2022/10/25 09:35:42;;;;;;;26.63;4.75;;;;;;;18.56;70.93;100683.38;4920486;28;119782;-75
2022/10/25 09:38:38;;;;;;;28.75;5.47;;;;;;;18.54;71.15;100690.72;4923306;28;120039;-76
2022/10/25 09:41:24;;;;;;;31.83;5.75;;;;;;;18.57;71.47;100695.25;4920239;28;119878;-75
2022/10/25 09:43:56;;;;;;;24.10;4.53;;;;;;;18.58;71.27;100703.09;4918386;28;120013;-74
2022/10/25 09:46:29;;;;;;;25.60;4.68;;;;;;;18.62;71.39;100697.25;4900374;28;123103;-76
2022/10/25 09:49:05;;;;;;;25.73;4.80;;;;;;;18.63;71.14;100704.38;4918809;28;119620;-76
2022/10/25 09:51:34;;;;;;;28.63;4.85;;;;;;;18.63;70.94;100698.81;4902325;28;121423;-75
2022/10/25 09:54:08;;;;;;;24.17;4.53;;;;;;;18.63;70.60;100709.91;4918642;28;119856;-75
2022/10/25 09:56:33;;;;;;;24.58;4.53;;;;;;;18.64;70.82;100714.22;4916347;28;119712;-75
2022/10/25 09:59:03;;;;;;;28.60;5.47;;;;;;;18.64;71.03;100709.41;4920699;28;120177;-75
2022/10/25 10:01:28;;;;;;;31.15;5.35;;;;;;;18.59;70.66;100704.59;4920338;28;120466;-75
2022/10/25 10:04:03;;;;;;;25.45;5.00;;;;;;;18.54;70.91;100701.81;4902892;28;119872;-76
2022/10/25 10:06:37;;;;;;;23.90;4.65;;;;;;;18.62;70.89;100711.94;4915147;28;120361;-74
2022/10/25 10:09:12;;;;;;;26.08;4.60;;;;;;;18.64;70.87;100719.78;4919164;28;119710;-76
2022/10/25 10:11:40;;;;;;;23.33;4.57;;;;;;;18.64;70.53;100726.09;4918959;28;119978;-76
2022/10/25 10:14:13;;;;;;;21.38;4.60;;;;;;;18.63;70.53;100726.59;4903330;28;120268;-76
2022/10/25 10:16:44;;;;;;;23.73;4.10;;;;;;;18.61;70.19;100732.63;4900889;28;121250;-75
2022/10/25 10:19:17;;;;;;;21.55;4.22;;;;;;;18.58;70.39;100735.66;4903490;28;119776;-76
2022/10/25 10:21:44;;;;;;;30.30;4.45;;;;;;;18.49;70.09;100722.03;4909590;28;120148;-75
2022/10/25 10:24:17;;;;;;;25.05;3.80;;;;;;;18.56;70.34;100738.94;4919730;28;120474;-75
2022/10/25 10:26:58;;;;;;;24.17;4.03;;;;;;;18.57;70.34;100745.25;4919131;28;119952;-75
2022/10/25 10:29:29;;;;;;;23.13;4.23;;;;;;;18.53;70.14;100744.75;4872278;28;120168;-75
2022/10/25 10:32:31;;;;;;;19.52;4.05;;;;;;;18.55;70.45;100742.97;4899285;28;119883;-76
2022/10/25 10:34:58;;;;;;;23.00;4.45;;;;;;;18.62;70.67;100747.28;4875212;28;120098;-76
2022/10/25 10:37:29;;;;;;;27.98;5.03;;;;;;;18.69;71.03;100742.03;4885700;28;120682;-75
2022/10/25 10:40:06;;;;;;;23.50;4.45;;;;;;;18.86;70.69;100744.00;4903923;28;120059;-74
2022/10/25 10:42:34;;;;;;;23.67;4.22;;;;;;;18.90;70.21;100750.81;4885708;28;120233;-74
2022/10/25 10:45:11;;;;;;;23.25;4.70;;;;;;;18.86;69.55;100742.00;4874708;28;120337;-75
2022/10/25 10:47:44;;;;;;;26.33;4.28;;;;;;;18.83;70.00;100756.16;4892620;28;120105;-76
2022/10/25 10:50:17;;;;;;;26.00;4.07;;;;;;;18.82;69.50;100744.28;4890851;28;119793;-76
2022/10/25 10:52:46;;;;;;;24.83;4.75;;;;;;;18.77;69.37;100741.50;4888591;28;120984;-76
2022/10/25 10:55:24;;;;;;;23.45;4.28;;;;;;;18.72;69.21;100740.25;4887575;28;120248;-75
2022/10/25 10:57:58;;;;;;;18.05;4.32;;;;;;;18.70;69.49;100753.88;4887391;28;119740;-75
2022/10/25 11:00:28;;;;;;;25.90;4.40;;;;;;;18.76;70.06;100760.19;4887568;28;120190;-76
2022/10/25 11:02:56;;;;;;;22.63;4.75;;;;;;;18.83;70.27;100751.34;4915352;28;122548;-75
2022/10/25 11:05:32;;;;;;;23.95;4.60;;;;;;;18.88;70.00;100745.03;4885817;28;120090;-76
2022/10/25 11:08:21;;;;;;;28.70;4.85;;;;;;;18.90;69.73;100761.19;4891514;28;120339;-76
2022/10/25 11:10:47;;;;;;;22.77;4.13;;;;;;;18.87;69.53;100762.97;4870971;28;119778;-76
2022/10/25 11:13:16;;;;;;;23.83;4.45;;;;;;;18.82;69.41;100766.50;4886568;28;120125;-75
2022/10/25 11:15:54;;;;;;;24.27;4.40;;;;;;;18.78;69.11;100773.59;4870152;28;121026;-76
2022/10/25 11:18:46;;;;;;;19.27;4.28;;;;;;;18.75;69.04;100769.78;4867152;28;120099;-76
2022/10/25 11:21:15;;;;;;;21.52;4.25;;;;;;;18.77;69.18;100769.28;4885830;28;120301;-75
2022/10/25 11:24:39;;;;;;;21.50;4.28;;;;;;;18.72;69.28;100778.38;4903256;28;119681;-76
2022/10/25 11:27:39;;;;;;;24.50;4.78;;;;;;;18.73;69.55;100772.31;4901984;28;120574;-76
2022/10/25 11:30:22;;;;;;;27.48;4.18;;;;;;;18.74;69.40;100781.41;4918334;28;119952;-75